createdAt,value
2023-02-02T00:00:00.919Z,17.42
2023-02-02T00:02:30.634Z,21.77
2023-02-02T00:05:00.239Z,16.35
2023-02-02T00:07:32.566Z,17.15
2023-02-02T00:10:02.145Z,18.70
2023-02-02T00:12:33.681Z,20.58
2023-02-02T00:15:03.251Z,17.95
2023-02-02T00:17:33.232Z,22.35
2023-02-02T00:20:02.860Z,18.90
2023-02-02T00:25:05.362Z,18.92
2023-02-02T00:27:34.953Z,16.42
2023-02-02T00:30:06.048Z,24.85
2023-02-02T00:32:35.819Z,15.23
2023-02-02T00:35:05.456Z,22.92
2023-02-02T00:37:37.876Z,20.77
2023-02-02T00:40:09.063Z,21.20
2023-02-02T00:42:38.712Z,16.95
2023-02-02T00:45:19.095Z,17.45
2023-02-02T00:47:49.958Z,20.83
2023-02-02T00:50:22.302Z,18.63
2023-02-02T00:52:54.559Z,15.95
2023-02-02T00:55:24.847Z,24.08
2023-02-02T00:57:54.863Z,21.80
2023-02-02T01:00:26.308Z,20.65
2023-02-02T01:02:57.031Z,22.15
2023-02-02T01:05:26.716Z,20.80
2023-02-02T01:07:59.351Z,21.15
2023-02-02T01:10:29.499Z,28.55
2023-02-02T01:12:59.090Z,21.52
2023-02-02T01:15:30.554Z,19.02
2023-02-02T01:18:00.254Z,16.85
2023-02-02T01:20:31.852Z,16.15
2023-02-02T01:23:04.021Z,15.40
2023-02-02T01:25:35.224Z,17.05
2023-02-02T01:28:04.822Z,16.75
2023-02-02T01:30:34.444Z,20.75
2023-02-02T01:33:25.303Z,19.70
2023-02-02T01:35:56.856Z,26.15
2023-02-02T01:38:29.048Z,20.52
2023-02-02T01:41:00.094Z,19.15
2023-02-02T01:43:31.305Z,19.48
2023-02-02T01:46:02.127Z,22.65
2023-02-02T01:48:35.252Z,18.92
2023-02-02T01:51:06.748Z,19.20
2023-02-02T01:53:39.846Z,21.77
2023-02-02T01:56:10.390Z,17.92
2023-02-02T01:58:42.110Z,18.08
2023-02-02T02:01:12.627Z,18.45
2023-02-02T02:03:42.303Z,18.48
2023-02-02T02:06:14.600Z,19.20
2023-02-02T02:08:52.255Z,26.13
2023-02-02T02:11:22.667Z,21.45
2023-02-02T02:14:05.331Z,17.35
2023-02-02T02:16:42.780Z,17.50
2023-02-02T02:19:36.084Z,17.80
2023-02-02T02:22:31.381Z,21.02
2023-02-02T02:25:42.522Z,23.73
2023-02-02T02:28:41.829Z,23.50
2023-02-02T02:31:59.042Z,18.05
2023-02-02T02:34:36.976Z,19.15
2023-02-02T02:37:13.384Z,17.63
2023-02-02T02:39:48.775Z,25.70
2023-02-02T02:42:21.880Z,22.50
2023-02-02T02:47:23.218Z,23.23
2023-02-02T02:49:55.514Z,19.98
2023-02-02T02:52:25.774Z,22.05
2023-02-02T02:54:57.179Z,19.73
2023-02-02T02:57:44.557Z,23.02
2023-02-02T03:00:29.751Z,24.10
2023-02-02T03:03:01.394Z,24.23
2023-02-02T03:05:40.670Z,24.58
2023-02-02T03:08:13.376Z,22.23
2023-02-02T03:10:44.370Z,21.65
2023-02-02T03:13:15.041Z,25.83
2023-02-02T03:15:45.258Z,26.75
2023-02-02T03:18:15.905Z,21.45
2023-02-02T03:20:48.423Z,25.20
2023-02-02T03:23:18.400Z,25.70
2023-02-02T03:25:48.303Z,18.08
2023-02-02T03:28:18.045Z,30.90
2023-02-02T03:30:48.918Z,24.13
2023-02-02T03:33:19.333Z,20.88
2023-02-02T03:35:51.493Z,20.63
2023-02-02T03:38:21.104Z,33.53
2023-02-02T03:40:50.697Z,20.90
2023-02-02T03:43:23.313Z,24.73
2023-02-02T03:45:59.001Z,21.23
2023-02-02T03:48:29.000Z,23.23
2023-02-02T03:51:01.160Z,23.02
2023-02-02T03:53:30.739Z,18.33
2023-02-02T03:56:00.304Z,23.40
2023-02-02T03:58:29.898Z,26.88
2023-02-02T04:01:02.658Z,22.40
2023-02-02T04:03:32.271Z,24.45
2023-02-02T04:06:04.611Z,18.33
2023-02-02T04:08:34.853Z,23.13
2023-02-02T04:11:04.870Z,27.77
2023-02-02T04:13:34.469Z,26.52
2023-02-02T04:16:04.163Z,28.83
2023-02-02T04:18:33.745Z,27.45
2023-02-02T04:21:06.309Z,26.90
2023-02-02T04:23:36.870Z,25.75
2023-02-02T04:26:06.930Z,26.00
2023-02-02T04:28:36.556Z,26.77
2023-02-02T04:31:06.477Z,23.35
2023-02-02T04:33:37.103Z,30.10
2023-02-02T04:36:10.229Z,24.75
2023-02-02T04:38:40.125Z,24.23
2023-02-02T04:41:10.960Z,22.75
2023-02-02T04:43:41.539Z,22.67
2023-02-02T04:46:11.192Z,16.25
2023-02-02T04:48:41.106Z,31.70
2023-02-02T04:51:15.380Z,27.92
2023-02-02T04:53:45.556Z,27.70
2023-02-02T04:56:17.423Z,27.00
2023-02-02T04:58:47.871Z,22.05
2023-02-02T05:01:20.845Z,28.35
2023-02-02T05:03:50.833Z,28.63
2023-02-02T05:06:23.042Z,28.58
2023-02-02T05:08:52.694Z,23.50
2023-02-02T05:11:24.420Z,20.65
2023-02-02T05:13:55.698Z,20.80
2023-02-02T05:16:28.932Z,23.95
2023-02-02T05:19:00.531Z,23.95
2023-02-02T05:21:32.673Z,16.80
2023-02-02T05:24:03.691Z,24.33
2023-02-02T05:26:33.276Z,24.80
2023-02-02T05:29:02.956Z,21.65
2023-02-02T05:31:32.741Z,18.73
2023-02-02T05:34:02.601Z,23.05
2023-02-02T05:36:35.007Z,19.35
2023-02-02T05:39:05.651Z,20.63
2023-02-02T05:41:35.258Z,27.90
2023-02-02T05:44:05.208Z,24.67
2023-02-02T05:46:34.843Z,23.80
2023-02-02T05:49:05.046Z,26.23
2023-02-02T05:51:39.301Z,24.25
2023-02-02T05:54:08.982Z,20.63
2023-02-02T05:56:38.585Z,29.35
2023-02-02T05:59:09.109Z,20.02
2023-02-02T06:01:38.777Z,22.33
2023-02-02T06:04:08.781Z,31.60
2023-02-02T06:06:41.534Z,22.88
2023-02-02T06:09:11.227Z,25.15
2023-02-02T06:11:41.026Z,25.67
2023-02-02T06:14:10.598Z,21.23
2023-02-02T06:16:40.630Z,26.80
2023-02-02T06:19:10.293Z,21.00
2023-02-02T06:21:42.433Z,23.50
2023-02-02T06:24:12.047Z,30.23
2023-02-02T06:26:41.851Z,24.35
2023-02-02T06:29:15.020Z,18.38
2023-02-02T06:31:44.852Z,28.17
2023-02-02T06:34:16.290Z,31.98
2023-02-02T06:36:48.955Z,24.90
2023-02-02T06:39:18.797Z,25.48
2023-02-02T06:41:49.216Z,22.80
2023-02-02T06:44:19.767Z,19.92
2023-02-02T06:46:49.466Z,23.60
2023-02-02T06:49:19.036Z,23.80
2023-02-02T06:51:52.325Z,25.63
2023-02-02T06:54:21.889Z,26.27
2023-02-02T06:56:51.844Z,31.92
2023-02-02T06:59:21.858Z,26.77
2023-02-02T07:01:52.160Z,25.20
2023-02-02T07:04:22.182Z,26.00
2023-02-02T07:06:54.385Z,34.33
2023-02-02T07:09:23.941Z,30.02
2023-02-02T07:11:53.498Z,27.00
2023-02-02T07:14:23.061Z,26.17
2023-02-02T07:16:52.677Z,27.10
2023-02-02T07:19:22.343Z,28.27
2023-02-02T07:21:54.518Z,27.92
2023-02-02T07:24:24.101Z,26.92
2023-02-02T07:26:54.138Z,29.80
2023-02-02T07:29:23.784Z,30.80
2023-02-02T07:31:53.686Z,25.98
2023-02-02T07:34:23.337Z,28.30
2023-02-02T07:36:55.509Z,31.08
2023-02-02T07:39:25.048Z,22.23
2023-02-02T07:41:54.621Z,27.13
2023-02-02T07:44:34.619Z,24.90
2023-02-02T07:47:04.169Z,30.23
2023-02-02T07:49:33.790Z,23.15
2023-02-02T07:52:06.102Z,26.48
2023-02-02T07:54:35.672Z,28.17
2023-02-02T07:57:05.254Z,26.75
2023-02-02T07:59:34.818Z,26.92
2023-02-02T08:02:04.443Z,28.55
2023-02-02T08:04:34.384Z,25.27
2023-02-02T08:07:06.572Z,23.75
2023-02-02T08:09:36.142Z,24.50
2023-02-02T08:12:05.836Z,26.52
2023-02-02T08:14:35.669Z,26.42
2023-02-02T08:17:05.366Z,26.77
2023-02-02T08:19:34.886Z,29.90
2023-02-02T08:22:07.050Z,29.67
2023-02-02T08:24:40.499Z,35.17
2023-02-02T08:27:10.520Z,26.98
2023-02-02T08:29:42.757Z,31.00
2023-02-02T08:32:12.359Z,31.83
2023-02-02T08:34:42.072Z,27.08
2023-02-02T08:37:14.296Z,28.35
2023-02-02T08:39:44.270Z,27.67
2023-02-02T08:42:13.970Z,27.58
2023-02-02T08:45:59.449Z,32.22
2023-02-02T08:47:33.103Z,29.17
2023-02-02T08:50:02.674Z,30.27
2023-02-02T08:52:35.112Z,25.60
2023-02-02T08:55:04.714Z,29.58
2023-02-02T08:57:34.547Z,32.60
2023-02-02T09:00:04.083Z,25.30
2023-02-02T09:02:33.667Z,28.70
2023-02-02T09:05:03.267Z,35.78
2023-02-02T09:07:35.411Z,32.53
2023-02-02T09:10:04.974Z,26.70
2023-02-02T09:12:34.541Z,31.27
2023-02-02T09:15:04.085Z,25.95
2023-02-02T09:17:33.650Z,32.38
2023-02-02T09:20:04.768Z,27.48
2023-02-02T09:22:36.929Z,28.88
2023-02-02T09:25:06.914Z,29.80
2023-02-02T09:27:41.069Z,25.63
2023-02-02T09:32:40.601Z,29.23
2023-02-02T09:35:10.980Z,31.08
2023-02-02T09:37:44.278Z,29.77
2023-02-02T09:40:19.405Z,27.70
2023-02-02T09:43:00.687Z,28.50
2023-02-02T09:45:36.184Z,32.10
2023-02-02T09:48:15.032Z,29.98
2023-02-02T09:50:47.335Z,31.35
2023-02-02T09:53:31.421Z,24.75
2023-02-02T09:56:03.572Z,31.58
2023-02-02T09:58:36.564Z,26.83
2023-02-02T10:01:09.923Z,32.85
2023-02-02T10:03:43.334Z,30.48
2023-02-02T10:06:19.239Z,32.15
2023-02-02T10:08:54.876Z,29.40
2023-02-02T10:11:34.019Z,25.00
2023-02-02T10:14:06.158Z,31.13
2023-02-02T10:16:37.081Z,32.72
2023-02-02T10:19:08.141Z,36.50
2023-02-02T10:21:43.098Z,25.25
2023-02-02T10:24:21.219Z,28.65
2023-02-02T10:26:52.485Z,23.33
2023-02-02T10:29:48.073Z,26.63
2023-02-02T10:32:25.184Z,30.17
2023-02-02T10:35:13.566Z,28.38
2023-02-02T10:37:51.771Z,27.20
2023-02-02T10:40:35.145Z,22.55
2023-02-02T10:43:31.639Z,28.30
2023-02-02T10:46:03.057Z,25.50
2023-02-02T10:48:37.284Z,25.42
2023-02-02T10:53:38.019Z,25.00
2023-02-02T10:56:12.081Z,24.83
2023-02-02T10:58:46.403Z,20.63
2023-02-02T11:01:18.216Z,23.05
2023-02-02T11:03:47.973Z,30.45
2023-02-02T11:06:42.363Z,18.42
2023-02-02T11:09:15.352Z,20.27
2023-02-02T11:11:49.746Z,19.80
2023-02-02T11:14:33.683Z,25.60
2023-02-02T11:17:06.531Z,19.52
2023-02-02T11:19:39.420Z,22.90
2023-02-02T11:22:08.986Z,17.38
2023-02-02T11:24:44.699Z,21.55
2023-02-02T11:27:21.219Z,20.77
2023-02-02T11:29:52.492Z,24.42
2023-02-02T11:32:27.991Z,20.42
2023-02-02T11:35:20.920Z,22.10
2023-02-02T11:38:01.126Z,20.08
2023-02-02T11:40:37.096Z,23.05
2023-02-02T11:43:19.888Z,17.30
2023-02-02T11:45:51.949Z,18.30
2023-02-02T11:48:22.669Z,20.88
2023-02-02T11:50:54.558Z,19.95
2023-02-02T11:53:29.477Z,23.77
2023-02-02T11:56:00.877Z,21.58
2023-02-02T11:58:45.468Z,22.38
2023-02-02T12:01:30.562Z,17.83
2023-02-02T12:04:02.041Z,19.00
2023-02-02T12:06:38.260Z,19.42
2023-02-02T12:09:14.886Z,17.55
2023-02-02T12:11:53.822Z,20.55
2023-02-02T12:14:36.130Z,17.48
2023-02-02T12:17:21.569Z,19.38
2023-02-02T12:20:19.433Z,18.05
2023-02-02T12:23:07.131Z,16.45
2023-02-02T12:25:50.084Z,19.20
2023-02-02T12:28:30.130Z,26.40
2023-02-02T12:31:09.028Z,15.65
2023-02-02T12:33:46.831Z,19.83
2023-02-02T12:36:26.507Z,13.80
2023-02-02T12:39:12.753Z,21.77
2023-02-02T12:41:52.408Z,17.73
2023-02-02T12:44:25.838Z,19.13
2023-02-02T12:47:08.069Z,22.20
2023-02-02T12:49:50.351Z,16.67
2023-02-02T12:52:27.884Z,17.20
2023-02-02T12:55:19.658Z,16.52
2023-02-02T12:57:55.857Z,16.95
2023-02-02T13:00:42.438Z,18.92
2023-02-02T13:03:30.011Z,19.48
2023-02-02T13:06:12.423Z,22.00
2023-02-02T13:08:46.509Z,18.15
2023-02-02T13:14:03.034Z,13.32
2023-02-02T13:16:33.821Z,20.10
2023-02-02T13:19:09.811Z,17.88
2023-02-02T13:21:47.535Z,20.33
2023-02-02T13:24:24.174Z,19.05
2023-02-02T13:26:54.428Z,17.58
2023-02-02T13:29:29.603Z,17.58
2023-02-02T13:32:02.171Z,20.67
2023-02-02T13:34:41.541Z,18.50
2023-02-02T13:37:17.276Z,17.33
2023-02-02T13:39:48.699Z,21.77
2023-02-02T13:42:27.063Z,19.92
2023-02-02T13:45:00.569Z,19.50
2023-02-02T13:47:36.062Z,28.90
2023-02-02T13:50:12.261Z,24.75
2023-02-02T13:53:07.568Z,25.42
2023-02-02T13:55:56.263Z,19.08
2023-02-02T13:58:40.747Z,18.45
2023-02-02T14:03:42.509Z,24.33
2023-02-02T14:06:15.959Z,19.50
2023-02-02T14:08:55.534Z,28.30
2023-02-02T14:11:28.888Z,29.83
2023-02-02T14:14:13.701Z,25.45
2023-02-02T14:16:56.720Z,29.40
2023-02-02T14:19:56.217Z,21.30
2023-02-02T14:22:41.478Z,25.52
2023-02-02T14:25:55.382Z,25.27
2023-02-02T14:28:48.864Z,24.95
2023-02-02T14:31:44.544Z,22.40
2023-02-02T14:34:36.750Z,23.67
2023-02-02T14:37:38.950Z,34.70
2023-02-02T14:40:42.356Z,24.00
2023-02-02T14:43:36.290Z,22.80
2023-02-02T14:46:27.726Z,19.03
2023-02-02T14:49:16.379Z,22.30
2023-02-02T14:51:52.608Z,21.60
2023-02-02T14:54:26.990Z,20.02
2023-02-02T14:57:00.706Z,25.13
2023-02-02T14:59:33.885Z,30.52
2023-02-02T15:02:16.520Z,18.73
2023-02-02T15:04:47.990Z,18.63
2023-02-02T15:07:47.649Z,19.85
2023-02-02T15:10:53.901Z,18.52
2023-02-02T15:13:24.030Z,18.13
2023-02-02T15:16:04.839Z,19.08
2023-02-02T15:18:43.879Z,25.00
2023-02-02T15:21:17.032Z,19.77
2023-02-02T15:23:47.679Z,20.20
2023-02-02T15:26:20.672Z,20.98
2023-02-02T15:28:55.806Z,16.33
2023-02-02T15:31:30.810Z,20.13
2023-02-02T15:34:06.186Z,20.23
2023-02-02T15:36:38.411Z,20.00
2023-02-02T15:39:14.012Z,17.83
2023-02-02T15:41:46.316Z,25.20
2023-02-02T15:44:31.972Z,19.05
2023-02-02T15:47:01.545Z,18.20
2023-02-02T15:49:36.342Z,18.48
2023-02-02T15:52:14.352Z,23.10
2023-02-02T15:54:53.421Z,16.88
2023-02-02T15:57:32.274Z,17.02
2023-02-02T16:00:03.617Z,14.27
2023-02-02T16:02:43.622Z,19.27
2023-02-02T16:05:44.225Z,19.38
2023-02-02T16:08:19.107Z,21.88
2023-02-02T16:10:49.764Z,21.60
2023-02-02T16:13:27.042Z,17.10
2023-02-02T16:16:01.587Z,16.65
2023-02-02T16:18:32.470Z,24.10
2023-02-02T16:21:07.852Z,24.92
2023-02-02T16:23:38.255Z,21.25
2023-02-02T16:26:08.698Z,25.55
2023-02-02T16:28:38.560Z,21.50
2023-02-02T16:31:09.673Z,26.15
2023-02-02T16:33:40.683Z,25.08
2023-02-02T16:36:26.990Z,22.13
2023-02-02T16:38:57.848Z,21.27
2023-02-02T16:41:32.338Z,25.38
2023-02-02T16:44:32.489Z,33.10
2023-02-02T16:47:02.765Z,21.05
2023-02-02T16:49:33.280Z,24.20
2023-02-02T16:52:19.629Z,25.25
2023-02-02T16:54:53.940Z,26.95
2023-02-02T16:57:26.371Z,31.60
2023-02-02T16:59:57.264Z,28.98
2023-02-02T17:02:30.883Z,26.85
2023-02-02T17:05:03.703Z,26.05
2023-02-02T17:07:37.671Z,40.72
2023-02-02T17:10:17.564Z,36.20
2023-02-02T17:12:47.998Z,34.05
2023-02-02T17:15:35.723Z,31.85
2023-02-02T17:18:06.803Z,38.45
2023-02-02T17:20:36.525Z,29.98
2023-02-02T17:23:10.576Z,31.55
2023-02-02T17:25:43.451Z,31.10
2023-02-02T17:28:14.863Z,34.70
2023-02-02T17:30:44.839Z,30.35
2023-02-02T17:33:16.273Z,36.08
2023-02-02T17:35:54.745Z,36.47
2023-02-02T17:38:28.434Z,36.40
2023-02-02T17:41:01.218Z,41.70
2023-02-02T17:43:31.273Z,37.67
2023-02-02T17:46:01.014Z,40.63
2023-02-02T17:48:30.664Z,40.28
2023-02-02T17:51:03.208Z,43.35
2023-02-02T17:53:35.410Z,40.70
2023-02-02T17:56:04.990Z,36.30
2023-02-02T17:58:34.606Z,35.85
2023-02-02T18:01:04.400Z,36.50
2023-02-02T18:03:36.302Z,37.03
2023-02-02T18:06:06.446Z,42.13
2023-02-02T18:08:38.583Z,33.95
2023-02-02T18:11:08.941Z,38.88
2023-02-02T18:13:38.574Z,42.75
2023-02-02T18:16:09.000Z,41.47
2023-02-02T18:18:38.822Z,42.05
2023-02-02T18:21:12.099Z,41.40
2023-02-02T18:23:44.314Z,41.27
2023-02-02T18:26:17.572Z,50.00
2023-02-02T18:28:48.765Z,41.10
2023-02-02T18:31:21.015Z,40.90
2023-02-02T18:33:50.662Z,41.28
2023-02-02T18:36:21.595Z,42.55
2023-02-02T18:38:54.183Z,52.30
2023-02-02T18:41:24.218Z,48.33
2023-02-02T18:43:56.909Z,38.08
2023-02-02T18:46:27.007Z,50.05
2023-02-02T18:48:58.038Z,40.92
2023-02-02T18:51:27.669Z,47.47
2023-02-02T18:54:00.456Z,47.50
2023-02-02T18:56:30.713Z,45.38
2023-02-02T18:59:00.875Z,52.72
2023-02-02T19:01:30.582Z,44.40
2023-02-02T19:04:00.493Z,41.47
2023-02-02T19:06:42.944Z,47.17
2023-02-02T19:09:17.400Z,43.03
2023-02-02T19:11:48.603Z,41.85
2023-02-02T19:14:19.788Z,43.25
2023-02-02T19:16:52.571Z,45.67
2023-02-02T19:19:29.170Z,44.17
2023-02-02T19:22:00.109Z,43.90
2023-02-02T19:24:41.283Z,44.38
2023-02-02T19:27:18.646Z,48.15
2023-02-02T19:29:50.776Z,43.92
2023-02-02T19:32:22.035Z,42.92
2023-02-02T19:34:52.084Z,43.00
2023-02-02T19:37:26.802Z,50.78
2023-02-02T19:40:20.267Z,39.10
2023-02-02T19:42:51.205Z,42.13
2023-02-02T19:45:24.822Z,41.47
2023-02-02T19:47:54.376Z,41.25
2023-02-02T19:50:26.444Z,39.83
2023-02-02T19:52:57.580Z,34.97
2023-02-02T19:55:31.941Z,37.22
2023-02-02T19:58:05.043Z,35.55
2023-02-02T20:00:34.696Z,35.67
2023-02-02T20:03:07.381Z,36.28
2023-02-02T20:05:37.715Z,34.25
2023-02-02T20:08:11.978Z,37.17
2023-02-02T20:10:46.221Z,31.85
2023-02-02T20:13:19.249Z,31.52
2023-02-02T20:15:49.084Z,32.78
2023-02-02T20:18:23.900Z,39.40
2023-02-02T20:20:55.506Z,34.55
2023-02-02T20:23:37.394Z,31.23
2023-02-02T20:26:15.761Z,30.15
2023-02-02T20:28:46.537Z,29.85
2023-02-02T20:31:19.043Z,28.77
2023-02-02T20:33:51.777Z,36.15
2023-02-02T20:36:39.679Z,31.42
2023-02-02T20:39:35.421Z,31.73
2023-02-02T20:42:07.824Z,31.75
2023-02-02T20:44:37.844Z,29.90
2023-02-02T20:47:08.059Z,30.48
2023-02-02T20:49:38.724Z,26.17
2023-02-02T20:52:12.006Z,28.73
2023-02-02T20:54:42.221Z,25.43
2023-02-02T20:57:14.441Z,29.15
2023-02-02T20:59:44.101Z,27.38
2023-02-02T21:02:19.319Z,26.13
2023-02-02T21:04:49.396Z,24.75
2023-02-02T21:07:20.912Z,30.23
2023-02-02T21:09:51.786Z,23.67
2023-02-02T21:12:25.750Z,23.58
2023-02-02T21:14:55.513Z,25.35
2023-02-02T21:17:25.222Z,26.00
2023-02-02T21:19:54.813Z,30.35
2023-02-02T21:22:24.371Z,24.13
2023-02-02T21:24:54.831Z,22.17
2023-02-02T21:27:27.059Z,20.23
2023-02-02T21:29:56.629Z,21.90
2023-02-02T21:32:26.252Z,22.33
2023-02-02T21:34:55.885Z,23.48
2023-02-02T21:37:25.464Z,26.15
2023-02-02T21:39:59.606Z,25.92
2023-02-02T21:45:03.025Z,17.88
2023-02-02T21:47:35.953Z,20.95
2023-02-02T21:50:16.139Z,19.08
2023-02-02T21:52:46.523Z,23.60
2023-02-02T21:55:37.024Z,20.67
2023-02-02T21:58:17.585Z,21.30
2023-02-02T22:00:47.401Z,19.52
2023-02-02T22:03:29.945Z,24.58
2023-02-02T22:06:12.261Z,22.92
2023-02-02T22:08:42.328Z,23.00
2023-02-02T22:11:20.192Z,18.02
2023-02-02T22:13:52.719Z,20.70
2023-02-02T22:16:23.363Z,22.17
2023-02-02T22:18:52.966Z,20.70
2023-02-02T22:21:22.559Z,18.83
2023-02-02T22:23:52.131Z,22.02
2023-02-02T22:26:34.168Z,16.23
2023-02-02T22:29:12.175Z,23.92
2023-02-02T22:31:41.848Z,15.13
2023-02-02T22:34:11.905Z,19.48
2023-02-02T22:36:41.449Z,15.88
2023-02-02T22:39:11.106Z,25.50
2023-02-02T22:41:40.668Z,19.95
2023-02-02T22:44:12.853Z,16.88
2023-02-02T22:46:42.499Z,17.25
2023-02-02T22:49:12.109Z,16.77
2023-02-02T22:51:41.707Z,17.80
2023-02-02T22:54:11.289Z,20.45
2023-02-02T22:56:40.844Z,13.65
2023-02-02T22:59:13.029Z,18.83
2023-02-02T23:01:42.590Z,17.05
2023-02-02T23:04:12.222Z,16.30
2023-02-02T23:06:42.159Z,16.00
2023-02-02T23:09:11.815Z,18.85
2023-02-02T23:11:41.445Z,14.77
2023-02-02T23:14:14.413Z,24.83
2023-02-02T23:16:43.975Z,18.02
2023-02-02T23:19:13.578Z,16.48
2023-02-02T23:21:43.178Z,12.20
2023-02-02T23:24:12.758Z,14.73
2023-02-02T23:26:42.483Z,19.70
2023-02-02T23:29:14.650Z,11.30
2023-02-02T23:31:44.261Z,13.43
2023-02-02T23:34:13.903Z,17.05
2023-02-02T23:36:43.451Z,18.33
2023-02-02T23:39:13.053Z,17.05
2023-02-02T23:41:42.617Z,17.73
2023-02-02T23:44:14.954Z,17.63
2023-02-02T23:46:44.787Z,16.15
2023-02-02T23:49:14.431Z,20.10
2023-02-02T23:51:44.046Z,18.00
2023-02-02T23:54:14.332Z,17.75
2023-02-02T23:56:44.808Z,17.80
2023-02-02T23:59:16.942Z,16.13
